YGD weather

Goderich Airport
Goderich, Ontario, Canada

Public forecast

Using degrees Celsius for public forecast. Weather courtesy of forecast.io.

Closest aviation weather report (METAR) to Goderich Airport

Closest report is London Airport, 50.2 nm (92.9 km) SSE. Retrieved 2019/10/20 20:00 UTC (21 minutes ago):

CYXU 202000Z 23005KT 150V250 15SM FEW050 SCT090 20/10 A2988 RMK CU2AC1 SLP123 DENSITY ALT 1800FT

Closest aviation forecast (TAF) to Goderich Airport

Closest forecast is London Airport, 50.2 nm (92.9 km) SSE. Retrieved 2019/10/20 18:42 UTC (2 hours ago):

TAF CYXU 201739Z 2018/2118 17007KT P6SM SCT080 FM210000 07005KT P6SM FEW060 TEMPO 2103/2114 2SM BR PROB30 2107/2114 1/4SM FG FM211500 11012G22KT P6SM BKN240 BECMG 2115/2117 13015G25KT RMK NXT FCST BY 210000Z